Nora, Illinois
Current Conditions -  °F | °C
As of 10:55 AM on Thursday 27 Nov 2014 (Local Time) from KEFT Reporting Station
Light Snow Light Snow  
Wind Chill: 11°   Ceiling: 2200
Heat Index: 21°   Visibility: 3mi
Dew Point: 16°   Wind: 9mph
Humidity: 80%   Direction: 330°NNW
Pressure: 30.35"   Gusts: 17mph
Location:  42.46°N, 89.95°W
Report Text: KEFT 271655Z AUTO 33008G15KT 3SM -SN SCT013 OVC022 M06/M09 A3035 RMK AO2
Loading
Personal Weather Stations






























Interactive Weather Map New forecast layout! Learn more

10-Day Weather Forecast

Advertisements
Track Severe Weather on mobile